Time;durP1;ratioP1;P1;durP2;ratioP2;P2;SDS_P1;SDS_P2;PMS_P1;PMS_P2;Temp;Humidity;BMP_temperature;BMP_pressure;BME280_temperature;BME280_humidity;BME280_pressure;Samples;Min_cycle;Max_cycle;Signal;HPM_P1;HPM_P2
2023/01/22 00:00:37;;;;;;;18.60;8.50;;;0.70;99.90;;;;;;5045865;28;20210;-68
2023/01/22 00:03:05;;;;;;;17.13;8.90;;;0.70;99.90;;;;;;5040810;28;20294;-67
2023/01/22 00:05:32;;;;;;;20.37;10.10;;;0.70;99.90;;;;;;5044156;28;20623;-68
2023/01/22 00:07:59;;;;;;;16.27;7.87;;;0.70;99.90;;;;;;5045404;28;20305;-68
2023/01/22 00:10:26;;;;;;;17.00;8.20;;;0.70;99.90;;;;;;5047560;28;20242;-68
2023/01/22 00:12:53;;;;;;;15.77;7.87;;;0.70;99.90;;;;;;5049370;28;20328;-67
2023/01/22 00:15:20;;;;;;;19.40;8.93;;;0.70;99.90;;;;;;5044014;28;20295;-67
2023/01/22 00:17:47;;;;;;;18.03;8.37;;;0.70;99.90;;;;;;5049907;28;20226;-67
2023/01/22 00:20:15;;;;;;;16.97;8.47;;;0.70;99.90;;;;;;5047562;28;20291;-67
2023/01/22 00:22:42;;;;;;;17.80;9.20;;;0.70;99.90;;;;;;5047797;28;21198;-68
2023/01/22 00:25:11;;;;;;;15.73;8.10;;;0.80;99.90;;;;;;5048761;28;20245;-68
2023/01/22 00:27:40;;;;;;;14.57;7.93;;;0.80;99.90;;;;;;5048824;28;20276;-68
2023/01/22 00:30:09;;;;;;;15.37;7.90;;;0.80;99.90;;;;;;5055806;28;20207;-68
2023/01/22 00:32:36;;;;;;;16.50;7.87;;;0.80;99.90;;;;;;5049555;28;20246;-68
2023/01/22 00:35:03;;;;;;;15.83;7.60;;;0.80;99.90;;;;;;5051001;28;20657;-67
2023/01/22 00:37:31;;;;;;;17.63;8.30;;;0.80;99.90;;;;;;5048629;28;20613;-67
2023/01/22 00:39:58;;;;;;;17.43;8.63;;;0.80;99.90;;;;;;5055001;28;20298;-68
2023/01/22 00:42:25;;;;;;;15.97;8.97;;;0.80;99.90;;;;;;5058517;28;20616;-67
2023/01/22 00:44:52;;;;;;;17.53;7.30;;;0.80;99.90;;;;;;5047523;28;20863;-67
2023/01/22 00:47:19;;;;;;;16.43;8.20;;;0.80;99.90;;;;;;5050457;28;20287;-68
2023/01/22 00:49:46;;;;;;;16.30;8.10;;;0.80;99.90;;;;;;5055958;28;20758;-67
2023/01/22 00:52:13;;;;;;;13.13;6.53;;;0.80;99.90;;;;;;5052667;28;20239;-67
2023/01/22 00:54:41;;;;;;;14.37;7.33;;;0.80;99.90;;;;;;5051629;28;20238;-68
2023/01/22 00:57:08;;;;;;;13.93;8.03;;;0.80;99.90;;;;;;5051707;28;20284;-68
2023/01/22 00:59:35;;;;;;;18.93;8.20;;;0.80;99.90;;;;;;5052170;28;20297;-68
2023/01/22 01:02:02;;;;;;;17.10;9.00;;;0.80;99.90;;;;;;5052925;28;20265;-67
2023/01/22 01:04:29;;;;;;;13.30;6.87;;;0.80;99.90;;;;;;5061743;28;20238;-67
2023/01/22 01:06:56;;;;;;;14.50;7.17;;;0.80;99.90;;;;;;5048130;28;20206;-67
2023/01/22 01:09:23;;;;;;;14.90;7.57;;;0.70;99.90;;;;;;5048876;28;20334;-67
2023/01/22 01:11:51;;;;;;;14.90;7.83;;;0.70;99.90;;;;;;5056381;28;20282;-67
2023/01/22 01:14:18;;;;;;;16.13;8.00;;;0.80;99.90;;;;;;5047776;28;20286;-68
2023/01/22 01:16:45;;;;;;;15.07;6.93;;;0.70;99.90;;;;;;5046862;28;20272;-70
2023/01/22 01:19:16;;;;;;;12.53;8.03;;;0.80;99.90;;;;;;5057035;28;20211;-70
2023/01/22 01:21:43;;;;;;;15.27;7.03;;;0.70;99.90;;;;;;5052558;28;20669;-71
2023/01/22 01:24:11;;;;;;;12.90;7.03;;;0.80;99.90;;;;;;5047386;28;20231;-71
2023/01/22 01:26:39;;;;;;;13.60;6.63;;;0.80;99.90;;;;;;5051205;28;20206;-71
2023/01/22 01:29:10;;;;;;;14.23;7.03;;;0.80;99.90;;;;;;5046130;28;20231;-71
2023/01/22 01:31:38;;;;;;;15.63;8.00;;;0.80;99.90;;;;;;5052819;28;20543;-71
2023/01/22 01:34:05;;;;;;;16.07;7.40;;;0.80;99.90;;;;;;5056820;28;20234;-71
2023/01/22 01:36:32;;;;;;;13.47;6.03;;;0.80;99.90;;;;;;5048562;28;20250;-70
2023/01/22 01:38:59;;;;;;;14.67;6.90;;;0.80;99.90;;;;;;5051548;28;20206;-70
2023/01/22 01:41:27;;;;;;;13.90;6.70;;;0.80;99.90;;;;;;5047725;28;20841;-71
2023/01/22 01:44:14;;;;;;;12.60;6.47;;;0.80;99.90;;;;;;5047467;28;20207;-71
2023/01/22 01:46:46;;;;;;;13.10;6.50;;;0.80;99.90;;;;;;5054962;28;20286;-70
2023/01/22 01:49:22;;;;;;;14.10;6.20;;;0.80;99.90;;;;;;5049085;28;20306;-71
2023/01/22 01:51:50;;;;;;;11.43;5.83;;;0.80;99.90;;;;;;5050002;28;20255;-71
2023/01/22 01:54:17;;;;;;;12.47;6.67;;;0.80;99.90;;;;;;5047039;28;20301;-71
2023/01/22 01:56:48;;;;;;;11.00;5.93;;;0.80;99.90;;;;;;5048522;28;20203;-71
2023/01/22 01:59:19;;;;;;;13.97;6.47;;;0.80;99.90;;;;;;5048068;28;20449;-70
2023/01/22 02:01:52;;;;;;;9.83;5.20;;;0.80;99.90;;;;;;5051756;28;20223;-71
2023/01/22 02:04:20;;;;;;;11.10;6.00;;;0.90;99.90;;;;;;5061630;28;20645;-71
2023/01/22 02:06:46;;;;;;;10.90;5.60;;;0.80;99.90;;;;;;5051393;28;20231;-70
2023/01/22 02:09:14;;;;;;;8.87;4.80;;;0.80;99.90;;;;;;5047108;28;20258;-70
2023/01/22 02:11:42;;;;;;;11.97;6.13;;;0.80;99.90;;;;;;5053703;28;20290;-70
2023/01/22 02:14:14;;;;;;;9.87;5.80;;;0.80;99.90;;;;;;5049378;28;20616;-71
2023/01/22 02:16:42;;;;;;;9.10;5.00;;;0.80;99.90;;;;;;5054240;28;20305;-71
2023/01/22 02:19:09;;;;;;;11.23;5.80;;;0.80;99.90;;;;;;5048998;28;20286;-71
2023/01/22 02:21:39;;;;;;;10.73;5.13;;;0.80;99.90;;;;;;5056160;28;20202;-71
2023/01/22 02:24:09;;;;;;;10.93;5.80;;;0.80;99.90;;;;;;5057529;28;20290;-71
2023/01/22 02:26:37;;;;;;;8.77;5.07;;;0.80;99.90;;;;;;5057320;28;20595;-71
2023/01/22 02:29:06;;;;;;;10.00;5.67;;;0.80;99.90;;;;;;5052938;28;20310;-71
2023/01/22 02:31:33;;;;;;;11.37;6.50;;;0.80;99.90;;;;;;5056487;28;20207;-70
2023/01/22 02:34:01;;;;;;;11.23;6.13;;;0.80;99.90;;;;;;5054778;28;20262;-70
2023/01/22 02:36:28;;;;;;;9.47;5.27;;;0.80;99.90;;;;;;5047368;28;20207;-71
2023/01/22 02:38:57;;;;;;;8.27;5.30;;;0.80;99.90;;;;;;5057414;28;20300;-71
2023/01/22 02:41:24;;;;;;;9.10;5.23;;;0.80;99.90;;;;;;5055576;28;20239;-71
2023/01/22 02:43:51;;;;;;;8.40;4.60;;;0.80;99.90;;;;;;5051122;28;20497;-71
2023/01/22 02:46:19;;;;;;;10.60;5.20;;;0.80;99.90;;;;;;5052499;28;20282;-71
2023/01/22 02:48:46;;;;;;;10.40;5.93;;;0.80;99.90;;;;;;5053694;28;20317;-71
2023/01/22 02:51:12;;;;;;;10.40;6.07;;;0.80;99.90;;;;;;5062959;28;20301;-71
2023/01/22 02:53:39;;;;;;;11.13;6.40;;;0.80;99.90;;;;;;5050602;28;20246;-71
2023/01/22 02:56:09;;;;;;;8.07;5.03;;;0.80;99.90;;;;;;5051699;28;20235;-71
2023/01/22 02:58:36;;;;;;;8.13;4.50;;;0.80;99.90;;;;;;5058296;28;20298;-71
2023/01/22 03:01:17;;;;;;;11.13;4.80;;;0.80;99.90;;;;;;5049904;28;20234;-70
2023/01/22 03:03:45;;;;;;;12.60;4.90;;;0.80;99.90;;;;;;5059394;28;20289;-71
2023/01/22 03:06:14;;;;;;;7.87;4.57;;;0.80;99.90;;;;;;5056341;28;20289;-71
2023/01/22 03:08:42;;;;;;;9.03;5.10;;;0.80;99.90;;;;;;5055792;28;20281;-71
2023/01/22 03:11:11;;;;;;;10.10;5.37;;;0.80;99.90;;;;;;5050286;28;20203;-71
2023/01/22 03:21:51;;;;;;;6.43;4.43;;;0.80;99.90;;;;;;5059414;28;20563;-72
2023/01/22 03:24:18;;;;;;;8.63;4.70;;;0.80;99.90;;;;;;5060314;28;20291;-71
2023/01/22 03:26:47;;;;;;;8.03;5.40;;;0.80;99.90;;;;;;5055780;28;20289;-71
2023/01/22 03:29:13;;;;;;;8.10;4.97;;;0.70;99.90;;;;;;5070566;28;20305;-70
2023/01/22 03:31:40;;;;;;;9.70;4.77;;;0.80;99.90;;;;;;5059468;28;20282;-71
2023/01/22 03:34:07;;;;;;;11.93;6.53;;;0.80;99.90;;;;;;5051577;28;20642;-71
2023/01/22 03:36:34;;;;;;;12.80;6.37;;;0.80;99.90;;;;;;5056152;28;20278;-70
2023/01/22 03:39:01;;;;;;;11.13;6.30;;;0.80;99.90;;;;;;5058115;28;20306;-71
2023/01/22 03:41:28;;;;;;;9.40;5.00;;;0.80;99.90;;;;;;5056720;28;20288;-71
2023/01/22 03:43:57;;;;;;;10.70;5.63;;;0.80;99.90;;;;;;5049730;28;20688;-72
2023/01/22 03:46:24;;;;;;;10.60;4.90;;;0.80;99.90;;;;;;5049529;28;20285;-71
2023/01/22 03:48:51;;;;;;;12.00;5.17;;;0.80;99.90;;;;;;5062547;28;20649;-71
2023/01/22 03:51:19;;;;;;;11.63;5.17;;;0.80;99.90;;;;;;5057159;28;20287;-71
2023/01/22 03:53:46;;;;;;;9.50;4.70;;;0.70;99.90;;;;;;5063047;28;20286;-71
2023/01/22 03:56:15;;;;;;;9.20;5.10;;;0.80;99.90;;;;;;5050898;28;20226;-71
2023/01/22 03:58:42;;;;;;;11.53;5.83;;;0.70;99.90;;;;;;5052153;28;20278;-71
2023/01/22 04:01:12;;;;;;;8.10;4.60;;;0.70;99.90;;;;;;5052080;28;20306;-71
2023/01/22 04:03:39;;;;;;;9.60;5.10;;;0.70;99.90;;;;;;5049587;28;20241;-71
2023/01/22 04:06:08;;;;;;;10.67;4.97;;;0.70;99.90;;;;;;5049617;28;20282;-71
2023/01/22 04:08:36;;;;;;;8.17;5.60;;;0.70;99.90;;;;;;5053204;28;20203;-71
2023/01/22 04:11:03;;;;;;;9.23;5.70;;;0.70;99.90;;;;;;5064171;28;20230;-71
2023/01/22 04:13:32;;;;;;;9.13;5.37;;;0.60;99.90;;;;;;5049410;28;20298;-71
2023/01/22 04:15:59;;;;;;;8.60;4.57;;;0.70;99.90;;;;;;5055942;28;20646;-71
2023/01/22 04:18:28;;;;;;;8.07;4.60;;;0.70;99.90;;;;;;5060806;28;20297;-71
2023/01/22 04:20:55;;;;;;;10.17;4.90;;;0.70;99.90;;;;;;5051716;28;20285;-70
2023/01/22 04:23:22;;;;;;;6.90;5.10;;;0.70;99.90;;;;;;5049030;28;20290;-72
2023/01/22 04:25:49;;;;;;;7.83;4.20;;;0.70;99.90;;;;;;5039147;28;20706;-71
2023/01/22 04:28:17;;;;;;;8.33;4.10;;;0.70;99.90;;;;;;5057850;28;20202;-71
2023/01/22 04:30:45;;;;;;;7.07;3.90;;;0.70;99.90;;;;;;5050731;28;20719;-70
2023/01/22 04:33:12;;;;;;;7.43;3.90;;;0.70;99.90;;;;;;5051282;28;20238;-71
2023/01/22 04:35:41;;;;;;;8.13;4.30;;;0.70;99.90;;;;;;5048946;28;20606;-70
2023/01/22 04:38:11;;;;;;;7.00;4.20;;;0.70;99.90;;;;;;5051114;28;20235;-71
2023/01/22 04:40:39;;;;;;;7.30;3.97;;;0.70;99.90;;;;;;5065936;28;20234;-70
2023/01/22 04:43:07;;;;;;;7.27;4.17;;;0.60;99.90;;;;;;5053046;28;20294;-71
2023/01/22 04:45:34;;;;;;;6.90;4.47;;;0.70;99.90;;;;;;5047905;28;20257;-70
2023/01/22 04:48:01;;;;;;;6.17;3.80;;;0.70;99.90;;;;;;5056837;28;20245;-71
2023/01/22 04:50:31;;;;;;;9.73;4.13;;;0.70;99.90;;;;;;5046992;28;20314;-71
2023/01/22 04:53:00;;;;;;;7.53;4.40;;;0.70;99.90;;;;;;5047475;28;20543;-70
2023/01/22 04:55:28;;;;;;;6.53;3.60;;;0.70;99.90;;;;;;5047352;28;20238;-70
2023/01/22 04:57:55;;;;;;;6.33;4.33;;;0.70;99.90;;;;;;5057543;28;20333;-70
2023/01/22 05:00:23;;;;;;;6.83;4.00;;;0.70;99.90;;;;;;5048799;28;20715;-70
2023/01/22 05:02:50;;;;;;;6.17;3.80;;;0.70;99.90;;;;;;5050454;28;20282;-70
2023/01/22 05:05:18;;;;;;;7.53;4.03;;;0.70;99.90;;;;;;5047511;28;20281;-70
2023/01/22 05:07:44;;;;;;;7.50;4.60;;;0.70;99.90;;;;;;5058204;28;20203;-70
2023/01/22 05:10:13;;;;;;;7.93;4.90;;;0.70;99.90;;;;;;5055511;28;20783;-70
2023/01/22 05:12:40;;;;;;;8.57;4.60;;;0.70;99.90;;;;;;5050302;28;20291;-70
2023/01/22 05:15:08;;;;;;;9.40;4.90;;;0.70;99.90;;;;;;5048259;28;20235;-70
2023/01/22 05:17:34;;;;;;;11.07;5.30;;;0.70;99.90;;;;;;5050424;28;20243;-70
2023/01/22 05:20:01;;;;;;;8.13;4.47;;;0.70;99.90;;;;;;5046895;28;20314;-70
2023/01/22 05:22:28;;;;;;;8.67;4.87;;;0.60;99.90;;;;;;5048533;28;20286;-70
2023/01/22 05:24:55;;;;;;;7.67;5.30;;;0.70;99.90;;;;;;5054825;28;20285;-70
2023/01/22 05:27:24;;;;;;;7.20;4.53;;;0.70;99.90;;;;;;5060912;28;20286;-70
2023/01/22 05:29:51;;;;;;;7.47;5.13;;;0.70;99.90;;;;;;5047603;28;20305;-70
2023/01/22 05:32:18;;;;;;;7.60;4.70;;;0.70;99.90;;;;;;5050495;28;20627;-70
2023/01/22 05:34:45;;;;;;;8.77;4.60;;;0.70;99.90;;;;;;5046716;28;20242;-70
2023/01/22 05:37:12;;;;;;;6.67;4.20;;;0.60;99.90;;;;;;5049724;28;20210;-70
2023/01/22 05:39:38;;;;;;;6.97;3.97;;;0.60;99.90;;;;;;5046562;28;20306;-70
2023/01/22 05:42:06;;;;;;;8.37;4.73;;;0.60;99.90;;;;;;5047406;28;20265;-70
2023/01/22 05:44:34;;;;;;;6.63;3.50;;;0.60;99.90;;;;;;5050345;28;20468;-70
2023/01/22 05:47:01;;;;;;;6.60;4.30;;;0.60;99.90;;;;;;5058669;28;20293;-70
2023/01/22 05:49:28;;;;;;;6.13;4.27;;;0.60;99.90;;;;;;5057943;28;20310;-70
2023/01/22 05:51:55;;;;;;;7.80;4.30;;;0.60;99.90;;;;;;5045952;28;20238;-70
2023/01/22 05:54:21;;;;;;;6.43;4.33;;;0.60;99.90;;;;;;5053865;28;20198;-70
2023/01/22 05:56:48;;;;;;;7.07;4.03;;;0.60;99.90;;;;;;5053765;28;20230;-70
2023/01/22 05:59:15;;;;;;;7.07;4.67;;;0.60;99.90;;;;;;5053441;28;20494;-71
2023/01/22 06:01:44;;;;;;;5.73;3.90;;;0.60;99.90;;;;;;5047490;28;20286;-70
2023/01/22 06:04:11;;;;;;;5.63;3.50;;;0.60;99.90;;;;;;5051303;28;20637;-70
2023/01/22 06:06:37;;;;;;;5.83;3.83;;;0.60;99.90;;;;;;5045446;28;20200;-71
2023/01/22 06:09:04;;;;;;;6.70;3.97;;;0.60;99.90;;;;;;5055926;28;20751;-71
2023/01/22 06:11:31;;;;;;;7.23;4.37;;;0.60;99.90;;;;;;5048159;28;20199;-71
2023/01/22 06:13:58;;;;;;;8.70;4.77;;;0.60;99.90;;;;;;5046564;28;20684;-71
2023/01/22 06:16:25;;;;;;;6.30;4.60;;;0.60;99.90;;;;;;5056897;28;20292;-71
2023/01/22 06:18:54;;;;;;;7.13;4.80;;;0.60;99.90;;;;;;5056531;28;20235;-71
2023/01/22 06:21:21;;;;;;;4.57;3.20;;;0.60;99.90;;;;;;5045235;28;20238;-71
2023/01/22 06:23:48;;;;;;;6.17;3.67;;;0.60;99.90;;;;;;5037361;28;20258;-71
2023/01/22 06:26:15;;;;;;;5.20;3.47;;;0.60;99.90;;;;;;5048483;28;20240;-71
2023/01/22 06:28:42;;;;;;;6.67;3.70;;;0.60;99.90;;;;;;5042572;28;20243;-71
2023/01/22 06:31:09;;;;;;;5.57;3.67;;;0.60;99.90;;;;;;5040000;28;20733;-70
2023/01/22 06:33:37;;;;;;;5.87;3.80;;;0.60;99.90;;;;;;5047425;28;20286;-71
2023/01/22 06:36:06;;;;;;;7.17;4.13;;;0.60;99.90;;;;;;5046680;28;20202;-70
2023/01/22 06:38:34;;;;;;;5.87;3.57;;;0.60;99.90;;;;;;5038790;28;20474;-71
2023/01/22 06:41:01;;;;;;;7.23;3.47;;;0.60;99.90;;;;;;5045750;28;20295;-71
2023/01/22 06:43:28;;;;;;;6.20;4.20;;;0.60;99.90;;;;;;5037714;28;20617;-71
2023/01/22 06:45:55;;;;;;;7.27;4.00;;;0.60;99.90;;;;;;5042535;28;20721;-71
2023/01/22 06:48:22;;;;;;;5.87;3.70;;;0.60;99.90;;;;;;5047404;28;20199;-71
2023/01/22 06:50:49;;;;;;;7.30;4.20;;;0.60;99.90;;;;;;5052587;28;20445;-71
2023/01/22 06:53:18;;;;;;;7.63;4.60;;;0.60;99.90;;;;;;5044828;28;20673;-70
2023/01/22 06:55:45;;;;;;;6.13;3.83;;;0.60;99.90;;;;;;5043183;28;20285;-70
2023/01/22 06:58:12;;;;;;;8.40;4.03;;;0.60;99.90;;;;;;5048771;28;20234;-70
2023/01/22 07:00:39;;;;;;;7.13;4.77;;;0.60;99.90;;;;;;5047705;28;20291;-70
2023/01/22 07:03:07;;;;;;;8.47;5.03;;;0.60;99.90;;;;;;5041912;28;20291;-70
2023/01/22 07:05:35;;;;;;;9.07;5.53;;;0.60;99.90;;;;;;5047984;28;20253;-70
2023/01/22 07:08:02;;;;;;;7.83;5.13;;;0.60;99.90;;;;;;5046873;28;20730;-70
2023/01/22 07:10:31;;;;;;;9.17;4.53;;;0.60;99.90;;;;;;5050056;28;20673;-70
2023/01/22 07:12:58;;;;;;;9.53;5.23;;;0.60;99.90;;;;;;5050026;28;20220;-70
2023/01/22 07:15:26;;;;;;;8.20;5.37;;;0.60;99.90;;;;;;5045141;28;20204;-70
2023/01/22 07:17:54;;;;;;;8.57;4.70;;;0.60;99.90;;;;;;5056499;28;20205;-70
2023/01/22 07:20:22;;;;;;;7.83;4.43;;;0.60;99.90;;;;;;5047651;28;20258;-70
2023/01/22 07:22:50;;;;;;;7.97;5.47;;;0.60;99.90;;;;;;5047304;28;20280;-70
2023/01/22 07:25:17;;;;;;;9.97;5.23;;;0.60;99.90;;;;;;5051038;28;20674;-70
2023/01/22 07:27:45;;;;;;;9.80;5.07;;;0.60;99.90;;;;;;5064329;28;20281;-70
2023/01/22 07:30:13;;;;;;;8.73;4.93;;;0.60;99.90;;;;;;5058139;28;20234;-70
2023/01/22 07:32:40;;;;;;;9.17;4.87;;;0.60;99.90;;;;;;5050777;28;20681;-70
2023/01/22 07:35:08;;;;;;;7.47;4.93;;;0.60;99.90;;;;;;5050993;28;20286;-70
2023/01/22 07:37:35;;;;;;;8.60;4.50;;;0.60;99.90;;;;;;5052649;28;20253;-70
2023/01/22 07:40:03;;;;;;;7.77;4.87;;;0.60;99.90;;;;;;5050817;28;20211;-70
2023/01/22 07:42:30;;;;;;;8.13;5.43;;;0.60;99.90;;;;;;5051927;28;20195;-70
2023/01/22 07:44:59;;;;;;;6.97;4.50;;;0.60;99.90;;;;;;5044470;28;20198;-70
2023/01/22 07:47:25;;;;;;;8.33;5.10;;;0.70;99.90;;;;;;5051409;28;20643;-70
2023/01/22 07:49:52;;;;;;;9.67;5.10;;;0.70;99.90;;;;;;5050912;28;20249;-69
2023/01/22 07:52:19;;;;;;;7.13;4.07;;;0.70;99.90;;;;;;5043671;28;20200;-70
2023/01/22 07:54:46;;;;;;;8.00;4.70;;;0.70;99.90;;;;;;5047787;28;20715;-70
2023/01/22 07:57:15;;;;;;;8.50;4.67;;;0.70;99.90;;;;;;5054445;28;20210;-70
2023/01/22 07:59:42;;;;;;;8.83;4.67;;;0.70;99.90;;;;;;5047938;28;20211;-70
2023/01/22 08:02:13;;;;;;;6.97;4.33;;;0.70;99.90;;;;;;5050180;28;20255;-70
2023/01/22 08:04:40;;;;;;;8.57;4.93;;;0.70;99.90;;;;;;5047186;28;20564;-70
2023/01/22 08:07:14;;;;;;;13.93;6.00;;;0.70;99.90;;;;;;5049454;28;20243;-70
2023/01/22 08:09:41;;;;;;;15.10;7.33;;;0.80;99.90;;;;;;5047509;28;20202;-71
2023/01/22 08:12:09;;;;;;;10.27;5.73;;;0.80;99.90;;;;;;5050743;28;20231;-70
2023/01/22 08:14:36;;;;;;;8.03;5.00;;;0.80;99.90;;;;;;5046689;28;20385;-70
2023/01/22 08:17:03;;;;;;;7.30;5.00;;;0.80;99.90;;;;;;5046465;28;20208;-70
2023/01/22 08:19:31;;;;;;;8.47;5.57;;;0.80;99.90;;;;;;5045339;28;20236;-70
2023/01/22 08:21:58;;;;;;;8.63;5.20;;;0.80;99.90;;;;;;5050689;28;20311;-72
2023/01/22 08:24:25;;;;;;;15.37;8.43;;;0.80;99.90;;;;;;5051248;28;20218;-72
2023/01/22 08:26:51;;;;;;;8.97;5.03;;;0.90;99.90;;;;;;5048885;28;20215;-71
2023/01/22 08:29:18;;;;;;;7.37;4.57;;;0.90;99.90;;;;;;5050584;28;20207;-71
2023/01/22 08:31:45;;;;;;;7.93;5.10;;;0.90;99.90;;;;;;5047592;28;20344;-72
2023/01/22 08:34:12;;;;;;;8.40;4.80;;;0.90;99.90;;;;;;5051654;28;20676;-71
2023/01/22 08:36:40;;;;;;;8.03;4.53;;;0.90;99.90;;;;;;5053595;28;20200;-72
2023/01/22 08:39:09;;;;;;;8.33;5.00;;;0.90;99.90;;;;;;5049269;28;20203;-71
2023/01/22 08:41:36;;;;;;;9.27;5.07;;;1.00;99.90;;;;;;5045698;28;20250;-71
2023/01/22 08:44:03;;;;;;;7.57;4.77;;;1.00;99.90;;;;;;5045671;28;20733;-71
2023/01/22 08:46:30;;;;;;;11.70;6.73;;;1.00;99.90;;;;;;5047208;28;20225;-72
2023/01/22 08:48:57;;;;;;;14.20;7.37;;;1.00;99.90;;;;;;5048063;28;20199;-72
2023/01/22 08:51:25;;;;;;;9.63;5.57;;;1.10;99.90;;;;;;5038909;28;20223;-71
2023/01/22 08:53:53;;;;;;;8.90;5.70;;;1.10;99.90;;;;;;5043603;28;20210;-73
2023/01/22 08:56:22;;;;;;;10.97;5.37;;;1.20;99.90;;;;;;5047522;28;20577;-71
2023/01/22 08:58:50;;;;;;;10.00;5.63;;;1.30;99.90;;;;;;5045310;28;20195;-71
2023/01/22 09:01:18;;;;;;;10.30;5.87;;;1.30;99.90;;;;;;5045824;28;20203;-72
2023/01/22 09:03:45;;;;;;;10.83;5.83;;;1.30;99.90;;;;;;5038872;28;20290;-72
2023/01/22 09:06:12;;;;;;;8.57;5.27;;;1.30;99.90;;;;;;5047015;28;20214;-71
2023/01/22 09:08:39;;;;;;;9.43;5.70;;;1.30;99.90;;;;;;5043071;28;20198;-71
2023/01/22 09:11:09;;;;;;;10.07;5.20;;;1.30;99.90;;;;;;5044863;28;20224;-71
2023/01/22 09:13:36;;;;;;;10.67;6.20;;;1.30;99.90;;;;;;5048092;28;20209;-71
2023/01/22 09:16:04;;;;;;;9.13;4.93;;;1.30;99.90;;;;;;5046279;28;20260;-71
2023/01/22 09:18:31;;;;;;;8.73;4.63;;;1.30;99.90;;;;;;5047581;28;20230;-72
2023/01/22 09:20:58;;;;;;;7.60;4.60;;;1.30;99.90;;;;;;5043341;28;20195;-72
2023/01/22 09:23:26;;;;;;;8.53;4.87;;;1.30;99.90;;;;;;5037830;28;20200;-71
2023/01/22 09:25:53;;;;;;;8.70;4.77;;;1.20;99.90;;;;;;5045442;28;20615;-71
2023/01/22 09:28:21;;;;;;;8.20;5.07;;;1.20;99.90;;;;;;5043805;28;20198;-71
2023/01/22 09:30:48;;;;;;;7.53;4.60;;;1.20;99.90;;;;;;5047577;28;20587;-72
2023/01/22 09:33:15;;;;;;;9.80;5.50;;;1.20;99.90;;;;;;5050957;28;20563;-71
2023/01/22 09:35:42;;;;;;;9.93;5.30;;;1.20;99.90;;;;;;5043039;28;20222;-72
2023/01/22 09:38:13;;;;;;;9.37;5.77;;;1.20;99.90;;;;;;5042580;28;20203;-70
2023/01/22 09:40:45;;;;;;;9.23;5.00;;;1.20;99.90;;;;;;5042885;28;20303;-72
2023/01/22 09:43:25;;;;;;;8.83;5.37;;;1.20;99.90;;;;;;5041010;28;20203;-72
2023/01/22 09:45:55;;;;;;;10.07;5.93;;;1.20;99.90;;;;;;5045378;28;20222;-72
2023/01/22 09:48:25;;;;;;;9.60;5.40;;;1.20;99.90;;;;;;5039602;28;20207;-70
2023/01/22 09:50:52;;;;;;;10.20;5.73;;;1.20;99.90;;;;;;5040590;28;20596;-70
2023/01/22 09:53:21;;;;;;;9.70;5.47;;;1.20;99.90;;;;;;5045001;28;20202;-71
2023/01/22 09:55:51;;;;;;;10.33;5.63;;;1.20;99.90;;;;;;5046245;28;20206;-71
2023/01/22 09:58:20;;;;;;;10.90;5.87;;;1.20;99.90;;;;;;5046577;28;20214;-70
2023/01/22 10:00:51;;;;;;;10.40;6.00;;;1.20;99.90;;;;;;5045825;28;20210;-70
2023/01/22 10:03:23;;;;;;;12.50;6.63;;;1.30;99.90;;;;;;5043709;28;20211;-70
2023/01/22 10:05:54;;;;;;;12.70;6.60;;;1.30;99.90;;;;;;5045493;28;20538;-70
2023/01/22 10:08:23;;;;;;;13.43;6.40;;;1.40;99.90;;;;;;5042223;28;20234;-71
2023/01/22 10:10:50;;;;;;;11.23;5.77;;;1.40;99.90;;;;;;5046192;28;20222;-70
2023/01/22 10:13:20;;;;;;;12.00;5.80;;;1.30;99.90;;;;;;5043160;28;20303;-71
2023/01/22 10:15:49;;;;;;;10.37;5.67;;;1.40;99.90;;;;;;5045654;28;20460;-71
2023/01/22 10:18:26;;;;;;;11.77;6.60;;;1.30;99.90;;;;;;5051351;28;20572;-72
2023/01/22 10:20:54;;;;;;;12.40;6.80;;;1.40;99.90;;;;;;5047081;28;20198;-72
2023/01/22 10:23:24;;;;;;;12.63;6.70;;;1.40;99.90;;;;;;5045100;28;20272;-72
2023/01/22 10:25:55;;;;;;;10.60;5.43;;;1.40;99.90;;;;;;5036181;28;20222;-76
2023/01/22 10:28:25;;;;;;;12.80;6.77;;;1.40;99.90;;;;;;5042187;28;20207;-80
2023/01/22 10:30:57;;;;;;;19.47;7.93;;;1.40;99.90;;;;;;5036634;28;20228;-70
2023/01/22 10:33:26;;;;;;;13.10;6.83;;;1.40;99.90;;;;;;5043220;28;20289;-70
2023/01/22 10:35:55;;;;;;;9.70;5.57;;;1.40;99.90;;;;;;5042786;28;20226;-70
2023/01/22 10:38:25;;;;;;;11.13;6.27;;;1.40;99.90;;;;;;5040655;28;20219;-70
2023/01/22 10:40:57;;;;;;;10.67;6.17;;;1.40;99.90;;;;;;5044610;28;20207;-69
2023/01/22 10:43:32;;;;;;;10.27;6.03;;;1.40;99.90;;;;;;5045921;28;20658;-70
2023/01/22 10:46:15;;;;;;;9.83;5.40;;;1.40;99.90;;;;;;5043970;28;20697;-70
2023/01/22 10:48:42;;;;;;;10.70;5.90;;;1.40;99.90;;;;;;5046968;28;20337;-70
2023/01/22 10:51:14;;;;;;;10.83;6.23;;;1.40;99.90;;;;;;5050842;28;20246;-70
2023/01/22 10:53:47;;;;;;;8.80;5.40;;;1.30;99.90;;;;;;5051756;28;20234;-69
2023/01/22 10:56:27;;;;;;;11.60;6.13;;;1.40;99.90;;;;;;5047798;28;20705;-70
2023/01/22 10:58:55;;;;;;;10.53;6.00;;;1.40;99.90;;;;;;5046650;28;20214;-70
2023/01/22 11:01:29;;;;;;;11.13;6.43;;;1.40;99.90;;;;;;5044943;28;20234;-70
2023/01/22 11:03:56;;;;;;;10.93;6.03;;;1.40;99.90;;;;;;5049714;28;20199;-69
2023/01/22 11:06:26;;;;;;;10.00;6.50;;;1.30;99.90;;;;;;5044454;28;20260;-70
2023/01/22 11:09:13;;;;;;;11.17;6.70;;;1.30;99.90;;;;;;5043432;28;20613;-70
2023/01/22 11:11:46;;;;;;;9.23;5.93;;;1.30;99.90;;;;;;5048409;28;20440;-70
2023/01/22 11:14:19;;;;;;;9.67;6.30;;;1.20;99.90;;;;;;5052724;28;20202;-70
2023/01/22 11:16:51;;;;;;;9.87;6.07;;;1.20;99.90;;;;;;5050292;28;20250;-69
2023/01/22 11:19:23;;;;;;;9.87;5.93;;;1.30;99.90;;;;;;5053156;28;20574;-69
2023/01/22 11:21:52;;;;;;;10.47;6.53;;;1.20;99.90;;;;;;5051685;28;20672;-70
2023/01/22 11:24:25;;;;;;;11.97;6.97;;;1.20;99.90;;;;;;5051673;28;20203;-69
2023/01/22 11:27:20;;;;;;;11.47;7.47;;;1.30;99.90;;;;;;5045861;28;20199;-69
2023/01/22 11:30:01;;;;;;;13.27;6.33;;;1.20;99.90;;;;;;5050396;28;21133;-70
2023/01/22 11:32:46;;;;;;;10.27;6.00;;;1.30;99.90;;;;;;5042706;28;20231;-70
2023/01/22 11:35:21;;;;;;;10.83;5.87;;;1.30;99.90;;;;;;5050532;28;20198;-69
2023/01/22 11:38:14;;;;;;;10.97;5.60;;;1.30;99.90;;;;;;5046388;28;20306;-70
2023/01/22 11:40:57;;;;;;;11.33;6.27;;;1.30;99.90;;;;;;5046846;28;20285;-70
2023/01/22 11:43:36;;;;;;;13.87;7.00;;;1.30;99.90;;;;;;5048845;28;20210;-70
2023/01/22 11:46:15;;;;;;;11.10;6.07;;;1.30;99.90;;;;;;5055655;28;20649;-67
2023/01/22 11:48:59;;;;;;;11.30;6.80;;;1.40;99.90;;;;;;5054347;28;20205;-67
2023/01/22 11:51:31;;;;;;;11.53;6.90;;;1.40;99.90;;;;;;5049259;28;20276;-67
2023/01/22 11:54:26;;;;;;;11.93;6.77;;;1.40;99.90;;;;;;5051067;28;20203;-68
2023/01/22 11:57:08;;;;;;;11.87;6.43;;;1.50;99.90;;;;;;5038841;28;20203;-67
2023/01/22 11:59:45;;;;;;;14.33;6.90;;;1.40;99.90;;;;;;5056516;28;20198;-67
2023/01/22 12:02:27;;;;;;;10.90;5.83;;;1.40;99.90;;;;;;5045667;28;20207;-68
2023/01/22 12:05:11;;;;;;;11.63;5.93;;;1.40;99.90;;;;;;5042056;28;20199;-67
2023/01/22 12:07:50;;;;;;;11.87;6.00;;;1.40;99.90;;;;;;5044992;28;20267;-67
2023/01/22 12:10:47;;;;;;;10.47;6.00;;;1.40;99.90;;;;;;5041955;28;21441;-67
2023/01/22 12:13:26;;;;;;;10.60;6.30;;;1.40;99.90;;;;;;5048277;28;20223;-67
2023/01/22 12:15:58;;;;;;;11.30;6.37;;;1.40;99.90;;;;;;5051636;28;20210;-67
2023/01/22 12:18:57;;;;;;;12.03;6.60;;;1.40;99.90;;;;;;5058574;28;20209;-67
2023/01/22 12:21:38;;;;;;;9.23;6.17;;;1.40;99.90;;;;;;5052247;28;20191;-68
2023/01/22 12:24:13;;;;;;;10.70;5.93;;;1.40;99.90;;;;;;5049439;28;20234;-67
2023/01/22 12:26:46;;;;;;;9.43;6.60;;;1.40;99.90;;;;;;5045482;28;20306;-67
2023/01/22 12:29:18;;;;;;;9.13;5.53;;;1.40;99.90;;;;;;5045683;28;20210;-68
2023/01/22 12:31:50;;;;;;;10.67;5.57;;;1.40;99.90;;;;;;5044469;28;20238;-67
2023/01/22 12:34:21;;;;;;;9.10;6.90;;;1.40;99.90;;;;;;5037840;28;20296;-67
2023/01/22 12:36:51;;;;;;;9.50;6.00;;;1.40;99.90;;;;;;5040013;28;20208;-67
2023/01/22 12:39:26;;;;;;;9.63;6.13;;;1.40;99.90;;;;;;5043428;28;20222;-68
2023/01/22 12:42:03;;;;;;;12.33;6.90;;;1.50;99.90;;;;;;5044027;28;20285;-67
2023/01/22 12:44:43;;;;;;;12.07;7.33;;;1.40;99.90;;;;;;5044631;28;20657;-68
2023/01/22 12:47:16;;;;;;;10.63;7.40;;;1.40;99.90;;;;;;5042178;28;20203;-67
2023/01/22 12:49:48;;;;;;;11.77;7.07;;;1.50;99.90;;;;;;5044619;28;20292;-67
2023/01/22 12:52:35;;;;;;;11.60;7.27;;;1.50;99.90;;;;;;5042394;28;20219;-68
2023/01/22 12:55:04;;;;;;;10.93;6.60;;;1.50;99.90;;;;;;5038825;28;20210;-67
2023/01/22 12:57:39;;;;;;;9.03;6.27;;;1.40;99.90;;;;;;5043654;28;20545;-72
2023/01/22 13:00:24;;;;;;;9.70;6.43;;;1.50;99.90;;;;;;5047633;28;20207;-72
2023/01/22 13:02:51;;;;;;;9.13;6.50;;;1.50;99.90;;;;;;5043293;28;20634;-72
2023/01/22 13:05:35;;;;;;;10.33;6.30;;;1.40;99.90;;;;;;5048701;28;20202;-72
2023/01/22 13:08:05;;;;;;;10.50;7.10;;;1.40;99.90;;;;;;5046358;28;20199;-71
2023/01/22 13:10:34;;;;;;;10.50;6.30;;;1.50;99.90;;;;;;5044631;28;20568;-71
2023/01/22 13:13:03;;;;;;;11.00;6.67;;;1.40;99.90;;;;;;5044768;28;20229;-72